sensor_id;sensor_type;location;lat;lon;timestamp;pressure;altitude;pressure_sealevel;temperature;humidity
79138;BME280;68544;45.566;10.238;2024-03-02T00:00:00;98808.00;;;15.40;74.44
79138;BME280;68544;45.566;10.238;2024-03-02T00:02:28;98798.22;;;15.55;74.14
79138;BME280;68544;45.566;10.238;2024-03-02T00:04:53;98796.97;;;15.63;73.94
79138;BME280;68544;45.566;10.238;2024-03-02T00:07:18;98810.00;;;15.44;73.29
79138;BME280;68544;45.566;10.238;2024-03-02T00:09:44;98811.34;;;14.97;75.31
79138;BME280;68544;45.566;10.238;2024-03-02T00:12:15;98800.97;;;15.27;74.87
79138;BME280;68544;45.566;10.238;2024-03-02T00:14:41;98806.09;;;15.07;72.86
79138;BME280;68544;45.566;10.238;2024-03-02T00:17:16;98803.94;;;15.09;74.17
79138;BME280;68544;45.566;10.238;2024-03-02T00:19:44;98795.22;;;15.07;74.28
79138;BME280;68544;45.566;10.238;2024-03-02T00:22:09;98807.47;;;14.65;76.36
79138;BME280;68544;45.566;10.238;2024-03-02T00:24:35;98806.25;;;15.00;75.37
79138;BME280;68544;45.566;10.238;2024-03-02T00:27:01;98804.44;;;15.06;75.39
79138;BME280;68544;45.566;10.238;2024-03-02T00:29:29;98798.81;;;14.96;74.91
79138;BME280;68544;45.566;10.238;2024-03-02T00:31:54;98801.34;;;15.14;73.49
79138;BME280;68544;45.566;10.238;2024-03-02T00:34:21;98800.34;;;15.20;73.16
79138;BME280;68544;45.566;10.238;2024-03-02T00:36:46;98802.38;;;15.13;71.08
79138;BME280;68544;45.566;10.238;2024-03-02T00:39:15;98762.59;;;15.07;67.45
79138;BME280;68544;45.566;10.238;2024-03-02T00:41:42;98799.53;;;15.69;66.61
79138;BME280;68544;45.566;10.238;2024-03-02T00:44:11;98788.94;;;15.40;65.86
79138;BME280;68544;45.566;10.238;2024-03-02T00:46:39;98806.63;;;15.54;65.50
79138;BME280;68544;45.566;10.238;2024-03-02T00:49:25;98796.41;;;15.44;65.62
79138;BME280;68544;45.566;10.238;2024-03-02T00:51:54;98801.19;;;15.70;65.59
79138;BME280;68544;45.566;10.238;2024-03-02T00:54:21;98801.66;;;15.67;65.03
79138;BME280;68544;45.566;10.238;2024-03-02T00:56:47;98796.38;;;15.77;63.74
79138;BME280;68544;45.566;10.238;2024-03-02T00:59:13;98804.81;;;15.59;64.06
79138;BME280;68544;45.566;10.238;2024-03-02T01:01:38;98805.69;;;15.65;63.82
79138;BME280;68544;45.566;10.238;2024-03-02T01:04:04;98797.53;;;15.82;63.54
79138;BME280;68544;45.566;10.238;2024-03-02T01:06:30;98804.31;;;15.79;63.23
79138;BME280;68544;45.566;10.238;2024-03-02T01:08:55;98799.75;;;15.85;62.88
79138;BME280;68544;45.566;10.238;2024-03-02T01:11:20;98795.91;;;15.64;62.68
79138;BME280;68544;45.566;10.238;2024-03-02T01:13:48;98807.28;;;15.61;63.10
79138;BME280;68544;45.566;10.238;2024-03-02T01:16:14;98797.38;;;15.38;64.19
79138;BME280;68544;45.566;10.238;2024-03-02T01:18:41;98806.38;;;15.72;63.36
79138;BME280;68544;45.566;10.238;2024-03-02T01:21:06;98801.19;;;16.09;62.00
79138;BME280;68544;45.566;10.238;2024-03-02T01:23:32;98798.25;;;15.94;61.76
79138;BME280;68544;45.566;10.238;2024-03-02T01:25:58;98791.44;;;15.74;62.71
79138;BME280;68544;45.566;10.238;2024-03-02T01:28:23;98796.28;;;15.89;62.26
79138;BME280;68544;45.566;10.238;2024-03-02T01:30:49;98791.00;;;15.82;62.72
79138;BME280;68544;45.566;10.238;2024-03-02T01:33:14;98793.16;;;15.80;61.92
79138;BME280;68544;45.566;10.238;2024-03-02T01:35:40;98793.38;;;15.96;61.57
79138;BME280;68544;45.566;10.238;2024-03-02T01:38:06;98793.50;;;16.06;61.82
79138;BME280;68544;45.566;10.238;2024-03-02T01:40:33;98797.81;;;16.02;62.47
79138;BME280;68544;45.566;10.238;2024-03-02T01:42:59;98801.09;;;16.04;64.49
79138;BME280;68544;45.566;10.238;2024-03-02T01:45:24;98803.38;;;16.12;64.10
79138;BME280;68544;45.566;10.238;2024-03-02T01:47:49;98801.97;;;15.88;65.43
79138;BME280;68544;45.566;10.238;2024-03-02T01:50:15;98806.84;;;15.86;65.72
79138;BME280;68544;45.566;10.238;2024-03-02T01:52:41;98812.38;;;15.74;66.55
79138;BME280;68544;45.566;10.238;2024-03-02T01:55:07;98809.72;;;15.29;68.65
79138;BME280;68544;45.566;10.238;2024-03-02T01:57:36;98810.22;;;15.26;69.71
79138;BME280;68544;45.566;10.238;2024-03-02T02:00:02;98807.19;;;15.23;70.21
79138;BME280;68544;45.566;10.238;2024-03-02T02:02:28;98799.78;;;15.51;69.36
79138;BME280;68544;45.566;10.238;2024-03-02T02:04:53;98807.44;;;15.54;68.82
79138;BME280;68544;45.566;10.238;2024-03-02T02:07:19;98809.34;;;15.37;69.26
79138;BME280;68544;45.566;10.238;2024-03-02T02:09:45;98802.22;;;15.36;70.06
79138;BME280;68544;45.566;10.238;2024-03-02T02:12:10;98796.84;;;15.08;71.32
79138;BME280;68544;45.566;10.238;2024-03-02T02:14:36;98789.78;;;15.40;71.06
79138;BME280;68544;45.566;10.238;2024-03-02T02:17:02;98798.13;;;15.50;70.61
79138;BME280;68544;45.566;10.238;2024-03-02T02:19:28;98788.63;;;15.69;68.55
79138;BME280;68544;45.566;10.238;2024-03-02T02:21:53;98791.09;;;15.88;66.83
79138;BME280;68544;45.566;10.238;2024-03-02T02:24:19;98795.81;;;15.42;69.03
79138;BME280;68544;45.566;10.238;2024-03-02T02:26:44;98792.09;;;15.82;68.59
79138;BME280;68544;45.566;10.238;2024-03-02T02:29:09;98799.19;;;15.82;67.45
79138;BME280;68544;45.566;10.238;2024-03-02T02:31:41;98792.69;;;15.50;68.00
79138;BME280;68544;45.566;10.238;2024-03-02T02:34:07;98790.63;;;15.41;68.84
79138;BME280;68544;45.566;10.238;2024-03-02T02:36:33;98796.78;;;15.36;69.98
79138;BME280;68544;45.566;10.238;2024-03-02T02:39:02;98786.00;;;15.74;68.42
79138;BME280;68544;45.566;10.238;2024-03-02T02:41:32;98782.69;;;15.72;67.96
79138;BME280;68544;45.566;10.238;2024-03-02T02:43:57;98787.50;;;15.49;69.09
79138;BME280;68544;45.566;10.238;2024-03-02T02:46:22;98778.28;;;15.50;68.67
79138;BME280;68544;45.566;10.238;2024-03-02T02:48:48;98786.91;;;15.63;68.56
79138;BME280;68544;45.566;10.238;2024-03-02T02:51:13;98793.94;;;15.59;69.54
79138;BME280;68544;45.566;10.238;2024-03-02T02:53:39;98781.22;;;15.48;69.03
79138;BME280;68544;45.566;10.238;2024-03-02T02:56:07;98786.25;;;15.56;69.22
79138;BME280;68544;45.566;10.238;2024-03-02T02:58:32;98790.06;;;15.55;69.30
79138;BME280;68544;45.566;10.238;2024-03-02T03:00:58;98774.47;;;15.34;69.83
79138;BME280;68544;45.566;10.238;2024-03-02T03:03:23;98783.34;;;15.13;70.06
79138;BME280;68544;45.566;10.238;2024-03-02T03:05:48;60991.41;;;-142.84;100.00
79138;BME280;68544;45.566;10.238;2024-03-02T03:08:14;98797.34;;;15.05;70.22
79138;BME280;68544;45.566;10.238;2024-03-02T03:10:41;98790.25;;;15.04;70.56
79138;BME280;68544;45.566;10.238;2024-03-02T03:13:06;98793.41;;;15.29;69.65
79138;BME280;68544;45.566;10.238;2024-03-02T03:15:34;98785.34;;;15.51;69.27
79138;BME280;68544;45.566;10.238;2024-03-02T03:17:59;98789.34;;;15.43;69.38
79138;BME280;68544;45.566;10.238;2024-03-02T03:20:25;98788.94;;;15.40;69.78
79138;BME280;68544;45.566;10.238;2024-03-02T03:22:50;98782.94;;;15.38;69.72
79138;BME280;68544;45.566;10.238;2024-03-02T03:25:15;98784.69;;;15.44;69.59
79138;BME280;68544;45.566;10.238;2024-03-02T03:27:41;98787.53;;;15.21;70.91
79138;BME280;68544;45.566;10.238;2024-03-02T03:30:07;98786.00;;;15.41;70.52
79138;BME280;68544;45.566;10.238;2024-03-02T03:32:32;98780.81;;;15.56;70.48
79138;BME280;68544;45.566;10.238;2024-03-02T03:34:58;98800.28;;;15.48;70.24
79138;BME280;68544;45.566;10.238;2024-03-02T03:37:23;98803.13;;;15.25;69.69
79138;BME280;68544;45.566;10.238;2024-03-02T03:39:49;98808.06;;;14.95;70.28
79138;BME280;68544;45.566;10.238;2024-03-02T03:42:14;98814.50;;;14.49;72.13
79138;BME280;68544;45.566;10.238;2024-03-02T03:44:40;98818.81;;;14.62;72.35
79138;BME280;68544;45.566;10.238;2024-03-02T03:47:06;98810.09;;;14.88;71.49
79138;BME280;68544;45.566;10.238;2024-03-02T03:49:32;98814.38;;;14.84;72.15
79138;BME280;68544;45.566;10.238;2024-03-02T03:51:57;98813.13;;;14.91;72.70
79138;BME280;68544;45.566;10.238;2024-03-02T03:54:22;98816.97;;;15.07;72.40
79138;BME280;68544;45.566;10.238;2024-03-02T03:56:48;98812.44;;;15.29;71.57
79138;BME280;68544;45.566;10.238;2024-03-02T03:59:13;98823.50;;;15.39;70.54
79138;BME280;68544;45.566;10.238;2024-03-02T04:01:39;98821.06;;;14.93;71.64
79138;BME280;68544;45.566;10.238;2024-03-02T04:04:04;98818.25;;;14.88;71.87
79138;BME280;68544;45.566;10.238;2024-03-02T04:06:30;98827.84;;;14.79;71.68
79138;BME280;68544;45.566;10.238;2024-03-02T04:08:55;98830.13;;;14.98;72.11
79138;BME280;68544;45.566;10.238;2024-03-02T04:11:21;98823.56;;;15.11;71.31
79138;BME280;68544;45.566;10.238;2024-03-02T04:13:46;98840.09;;;14.65;72.71
79138;BME280;68544;45.566;10.238;2024-03-02T04:16:11;98831.63;;;15.06;71.69
79138;BME280;68544;45.566;10.238;2024-03-02T04:18:37;98822.66;;;15.06;71.14
79138;BME280;68544;45.566;10.238;2024-03-02T04:21:03;98831.41;;;14.79;72.41
79138;BME280;68544;45.566;10.238;2024-03-02T04:23:28;98832.13;;;15.03;72.34
79138;BME280;68544;45.566;10.238;2024-03-02T04:25:54;98833.28;;;15.07;72.19
79138;BME280;68544;45.566;10.238;2024-03-02T04:28:19;98837.25;;;15.16;71.69
79138;BME280;68544;45.566;10.238;2024-03-02T04:30:44;98837.53;;;14.86;72.64
79138;BME280;68544;45.566;10.238;2024-03-02T04:33:10;98841.31;;;15.02;71.96
79138;BME280;68544;45.566;10.238;2024-03-02T04:35:36;98843.50;;;15.17;72.09
79138;BME280;68544;45.566;10.238;2024-03-02T04:38:01;98837.91;;;15.40;70.86
79138;BME280;68544;45.566;10.238;2024-03-02T04:40:27;98848.28;;;15.10;71.30
79138;BME280;68544;45.566;10.238;2024-03-02T04:42:52;98846.47;;;15.15;71.82
79138;BME280;68544;45.566;10.238;2024-03-02T04:45:18;98847.06;;;15.34;71.52
79138;BME280;68544;45.566;10.238;2024-03-02T04:47:43;98847.63;;;15.19;71.83
79138;BME280;68544;45.566;10.238;2024-03-02T04:50:09;98854.94;;;15.02;71.93
79138;BME280;68544;45.566;10.238;2024-03-02T04:52:34;98848.31;;;15.26;71.94
79138;BME280;68544;45.566;10.238;2024-03-02T04:55:00;98851.78;;;15.38;70.87
79138;BME280;68544;45.566;10.238;2024-03-02T04:57:43;98848.84;;;15.56;70.15
79138;BME280;68544;45.566;10.238;2024-03-02T05:00:09;98847.69;;;15.52;69.55
79138;BME280;68544;45.566;10.238;2024-03-02T05:02:35;98825.28;;;15.45;69.21
79138;BME280;68544;45.566;10.238;2024-03-02T05:05:01;98847.47;;;15.42;70.07
79138;BME280;68544;45.566;10.238;2024-03-02T05:07:26;98841.19;;;15.09;71.56
79138;BME280;68544;45.566;10.238;2024-03-02T05:09:51;98859.84;;;15.33;70.88
79138;BME280;68544;45.566;10.238;2024-03-02T05:12:17;98855.38;;;15.27;70.99
79138;BME280;68544;45.566;10.238;2024-03-02T05:15:00;98859.50;;;15.30;71.76
79138;BME280;68544;45.566;10.238;2024-03-02T05:17:26;98863.53;;;15.27;71.34
79138;BME280;68544;45.566;10.238;2024-03-02T05:19:51;98858.38;;;15.42;71.44
79138;BME280;68544;45.566;10.238;2024-03-02T05:22:16;98864.44;;;15.16;71.81
79138;BME280;68544;45.566;10.238;2024-03-02T05:24:42;98862.78;;;15.15;71.87
79138;BME280;68544;45.566;10.238;2024-03-02T05:27:07;98861.78;;;15.04;72.28
79138;BME280;68544;45.566;10.238;2024-03-02T05:29:32;98876.47;;;15.20;72.39
79138;BME280;68544;45.566;10.238;2024-03-02T05:31:58;98875.69;;;15.36;71.83
79138;BME280;68544;45.566;10.238;2024-03-02T05:34:23;98869.56;;;15.29;71.47
79138;BME280;68544;45.566;10.238;2024-03-02T05:36:48;98881.41;;;15.23;72.27
79138;BME280;68544;45.566;10.238;2024-03-02T05:39:14;98877.53;;;15.47;71.45
79138;BME280;68544;45.566;10.238;2024-03-02T05:41:39;98871.09;;;15.53;70.57
79138;BME280;68544;45.566;10.238;2024-03-02T05:44:04;98875.25;;;15.56;70.34
79138;BME280;68544;45.566;10.238;2024-03-02T05:46:30;98875.47;;;15.54;70.67
79138;BME280;68544;45.566;10.238;2024-03-02T05:48:55;98868.50;;;15.58;70.33
79138;BME280;68544;45.566;10.238;2024-03-02T05:51:21;98875.31;;;15.44;70.77
79138;BME280;68544;45.566;10.238;2024-03-02T05:53:46;98883.13;;;15.13;71.28
79138;BME280;68544;45.566;10.238;2024-03-02T05:56:11;98880.44;;;15.29;71.14
79138;BME280;68544;45.566;10.238;2024-03-02T05:58:37;98889.81;;;15.22;70.14
79138;BME280;68544;45.566;10.238;2024-03-02T06:01:21;98888.81;;;15.11;71.55
79138;BME280;68544;45.566;10.238;2024-03-02T06:03:53;98886.97;;;15.00;72.28
79138;BME280;68544;45.566;10.238;2024-03-02T06:06:18;98890.84;;;15.32;71.82
79138;BME280;68544;45.566;10.238;2024-03-02T06:08:44;98892.47;;;15.33;71.29
79138;BME280;68544;45.566;10.238;2024-03-02T06:11:09;98895.75;;;15.47;71.77
79138;BME280;68544;45.566;10.238;2024-03-02T06:13:34;98871.28;;;15.19;70.63
79138;BME280;68544;45.566;10.238;2024-03-02T06:15:59;98899.31;;;15.47;70.27
79138;BME280;68544;45.566;10.238;2024-03-02T06:18:25;98899.94;;;15.54;70.05
79138;BME280;68544;45.566;10.238;2024-03-02T06:20:50;98907.13;;;15.16;70.28
79138;BME280;68544;45.566;10.238;2024-03-02T06:23:15;98910.72;;;15.04;71.39
79138;BME280;68544;45.566;10.238;2024-03-02T06:25:41;98901.47;;;15.34;70.75
79138;BME280;68544;45.566;10.238;2024-03-02T06:28:06;98916.56;;;15.41;69.86
79138;BME280;68544;45.566;10.238;2024-03-02T06:30:32;98918.53;;;15.57;69.55
79138;BME280;68544;45.566;10.238;2024-03-02T06:32:57;98923.94;;;15.29;70.01
79138;BME280;68544;45.566;10.238;2024-03-02T06:35:23;98933.84;;;15.47;70.16
79138;BME280;68544;45.566;10.238;2024-03-02T06:37:48;98926.28;;;15.65;69.95
79138;BME280;68544;45.566;10.238;2024-03-02T06:40:13;98935.50;;;15.36;70.40
79138;BME280;68544;45.566;10.238;2024-03-02T06:42:39;98936.25;;;15.60;70.08
79138;BME280;68544;45.566;10.238;2024-03-02T06:45:04;98929.16;;;15.59;70.12
79138;BME280;68544;45.566;10.238;2024-03-02T06:47:30;98944.06;;;15.56;70.25
79138;BME280;68544;45.566;10.238;2024-03-02T06:49:55;98943.31;;;15.44;71.37
79138;BME280;68544;45.566;10.238;2024-03-02T06:52:22;98946.34;;;15.20;70.53
79138;BME280;68544;45.566;10.238;2024-03-02T06:54:47;98963.25;;;15.22;70.88
79138;BME280;68544;45.566;10.238;2024-03-02T06:57:13;98959.63;;;15.44;70.03
79138;BME280;68544;45.566;10.238;2024-03-02T06:59:38;98965.00;;;15.28;71.44
79138;BME280;68544;45.566;10.238;2024-03-02T07:02:03;98970.50;;;15.16;73.11
79138;BME280;68544;45.566;10.238;2024-03-02T07:04:29;98972.72;;;15.19;73.13
79138;BME280;68544;45.566;10.238;2024-03-02T07:06:54;98987.94;;;14.92;74.97
79138;BME280;68544;45.566;10.238;2024-03-02T07:09:20;98981.44;;;14.93;75.68
79138;BME280;68544;45.566;10.238;2024-03-02T07:11:48;98993.09;;;15.33;74.46
79138;BME280;68544;45.566;10.238;2024-03-02T07:14:13;98995.03;;;15.33;73.69
79138;BME280;68544;45.566;10.238;2024-03-02T07:16:39;98968.59;;;15.17;73.91
79138;BME280;68544;45.566;10.238;2024-03-02T07:19:05;98998.59;;;15.61;73.05
79138;BME280;68544;45.566;10.238;2024-03-02T07:21:31;99008.50;;;15.67;72.75
79138;BME280;68544;45.566;10.238;2024-03-02T07:23:58;99009.81;;;15.65;72.49
79138;BME280;68544;45.566;10.238;2024-03-02T07:26:24;99008.09;;;15.75;71.95
79138;BME280;68544;45.566;10.238;2024-03-02T07:28:50;99008.25;;;15.69;72.21
79138;BME280;68544;45.566;10.238;2024-03-02T07:31:16;99015.91;;;15.55;73.15
79138;BME280;68544;45.566;10.238;2024-03-02T07:33:43;99008.31;;;15.57;73.36
79138;BME280;68544;45.566;10.238;2024-03-02T07:36:09;99016.91;;;15.66;72.00
79138;BME280;68544;45.566;10.238;2024-03-02T07:38:34;99007.88;;;15.77;71.80
79138;BME280;68544;45.566;10.238;2024-03-02T07:41:00;99020.38;;;16.06;70.97
79138;BME280;68544;45.566;10.238;2024-03-02T07:43:26;99024.06;;;16.00;71.31
79138;BME280;68544;45.566;10.238;2024-03-02T07:45:52;99022.72;;;15.86;70.99
79138;BME280;68544;45.566;10.238;2024-03-02T07:48:18;99023.03;;;15.73;72.08
79138;BME280;68544;45.566;10.238;2024-03-02T07:50:43;99018.41;;;15.73;72.24
79138;BME280;68544;45.566;10.238;2024-03-02T07:53:09;99021.34;;;15.84;72.06
79138;BME280;68544;45.566;10.238;2024-03-02T07:55:34;99007.00;;;15.60;72.74
79138;BME280;68544;45.566;10.238;2024-03-02T07:58:02;99020.94;;;15.92;72.04
79138;BME280;68544;45.566;10.238;2024-03-02T08:00:28;99031.91;;;16.13;71.28
79138;BME280;68544;45.566;10.238;2024-03-02T08:02:53;99029.59;;;16.05;72.82
79138;BME280;68544;45.566;10.238;2024-03-02T08:05:19;99029.00;;;16.20;71.83
79138;BME280;68544;45.566;10.238;2024-03-02T08:07:45;99029.41;;;15.95;72.14
79138;BME280;68544;45.566;10.238;2024-03-02T08:10:11;99039.06;;;16.03;71.21
79138;BME280;68544;45.566;10.238;2024-03-02T08:12:37;99038.00;;;15.87;71.24
79138;BME280;68544;45.566;10.238;2024-03-02T08:15:02;99029.09;;;15.92;71.43
79138;BME280;68544;45.566;10.238;2024-03-02T08:17:28;99039.75;;;16.10;70.75
79138;BME280;68544;45.566;10.238;2024-03-02T08:19:53;99041.25;;;16.17;71.34
79138;BME280;68544;45.566;10.238;2024-03-02T08:22:19;99037.28;;;16.25;69.90
79138;BME280;68544;45.566;10.238;2024-03-02T08:24:44;99040.75;;;16.37;69.54
79138;BME280;68544;45.566;10.238;2024-03-02T08:27:10;99039.53;;;16.61;68.78
79138;BME280;68544;45.566;10.238;2024-03-02T08:29:35;99041.84;;;16.69;67.85
79138;BME280;68544;45.566;10.238;2024-03-02T08:32:01;99043.25;;;16.93;66.99
79138;BME280;68544;45.566;10.238;2024-03-02T08:34:26;99056.34;;;16.08;68.56
79138;BME280;68544;45.566;10.238;2024-03-02T08:36:51;99050.66;;;16.59;68.72
79138;BME280;68544;45.566;10.238;2024-03-02T08:39:17;99051.22;;;17.16;66.78
79138;BME280;68544;45.566;10.238;2024-03-02T08:41:45;99052.22;;;17.10;68.48
79138;BME280;68544;45.566;10.238;2024-03-02T08:44:11;99052.97;;;16.51;69.16
79138;BME280;68544;45.566;10.238;2024-03-02T08:46:36;99054.94;;;16.72;68.30
79138;BME280;68544;45.566;10.238;2024-03-02T08:49:02;99060.06;;;16.85;68.53
79138;BME280;68544;45.566;10.238;2024-03-02T08:51:28;99064.94;;;16.83;67.84
79138;BME280;68544;45.566;10.238;2024-03-02T08:53:53;99060.00;;;16.80;68.00
79138;BME280;68544;45.566;10.238;2024-03-02T08:56:19;99049.97;;;16.86;68.82
79138;BME280;68544;45.566;10.238;2024-03-02T08:58:45;99065.63;;;17.12;68.48
79138;BME280;68544;45.566;10.238;2024-03-02T09:01:11;99062.88;;;17.50;68.28
79138;BME280;68544;45.566;10.238;2024-03-02T09:03:36;99064.59;;;17.39;67.20
79138;BME280;68544;45.566;10.238;2024-03-02T09:06:02;99062.53;;;17.47;66.83
79138;BME280;68544;45.566;10.238;2024-03-02T09:08:28;99060.56;;;17.64;67.03
79138;BME280;68544;45.566;10.238;2024-03-02T09:10:54;99066.69;;;17.97;65.59
79138;BME280;68544;45.566;10.238;2024-03-02T09:13:20;99071.06;;;18.25;65.48
79138;BME280;68544;45.566;10.238;2024-03-02T09:15:45;99062.78;;;18.20;65.16
79138;BME280;68544;45.566;10.238;2024-03-02T09:18:10;99054.34;;;18.53;64.06
79138;BME280;68544;45.566;10.238;2024-03-02T09:20:36;99044.31;;;18.59;62.90
79138;BME280;68544;45.566;10.238;2024-03-02T09:23:01;99056.41;;;19.10;61.87
79138;BME280;68544;45.566;10.238;2024-03-02T09:25:26;99061.88;;;19.10;59.61
79138;BME280;68544;45.566;10.238;2024-03-02T09:27:52;99060.41;;;19.39;59.43
79138;BME280;68544;45.566;10.238;2024-03-02T09:30:17;99062.94;;;19.09;59.29
79138;BME280;68544;45.566;10.238;2024-03-02T09:32:43;99065.63;;;19.45;57.85
79138;BME280;68544;45.566;10.238;2024-03-02T09:35:08;99059.84;;;19.42;55.00
79138;BME280;68544;45.566;10.238;2024-03-02T09:37:34;99063.34;;;19.32;54.75
79138;BME280;68544;45.566;10.238;2024-03-02T09:40:00;99070.66;;;19.68;55.61
79138;BME280;68544;45.566;10.238;2024-03-02T09:42:25;99068.28;;;20.12;55.33
79138;BME280;68544;45.566;10.238;2024-03-02T09:44:52;99071.16;;;19.55;56.69
79138;BME280;68544;45.566;10.238;2024-03-02T09:47:17;99079.91;;;19.11;56.26
79138;BME280;68544;45.566;10.238;2024-03-02T09:49:42;99079.19;;;18.47;55.25
79138;BME280;68544;45.566;10.238;2024-03-02T09:52:10;99077.09;;;18.32;55.47
79138;BME280;68544;45.566;10.238;2024-03-02T09:54:35;99086.28;;;17.68;56.68
79138;BME280;68544;45.566;10.238;2024-03-02T09:57:02;99081.41;;;18.23;55.27
79138;BME280;68544;45.566;10.238;2024-03-02T09:59:28;99077.56;;;18.19;54.86
79138;BME280;68544;45.566;10.238;2024-03-02T10:04:26;99080.84;;;18.21;54.81
79138;BME280;68544;45.566;10.238;2024-03-02T10:07:09;99072.09;;;18.19;54.76
79138;BME280;68544;45.566;10.238;2024-03-02T10:09:36;99073.84;;;17.77;55.62
79138;BME280;68544;45.566;10.238;2024-03-02T10:12:04;99080.25;;;17.66;56.72
79138;BME280;68544;45.566;10.238;2024-03-02T10:14:30;99076.59;;;17.17;56.19
79138;BME280;68544;45.566;10.238;2024-03-02T10:17:02;99072.69;;;17.29;56.62
79138;BME280;68544;45.566;10.238;2024-03-02T10:19:28;99075.72;;;17.50;56.50
79138;BME280;68544;45.566;10.238;2024-03-02T10:21:58;99062.25;;;17.05;57.30
79138;BME280;68544;45.566;10.238;2024-03-02T10:24:23;99076.09;;;17.58;54.63
79138;BME280;68544;45.566;10.238;2024-03-02T10:26:50;99081.78;;;17.57;54.24
79138;BME280;68544;45.566;10.238;2024-03-02T10:29:15;99079.88;;;17.57;54.60
79138;BME280;68544;45.566;10.238;2024-03-02T10:31:43;99086.00;;;17.91;54.68
79138;BME280;68544;45.566;10.238;2024-03-02T10:34:10;99081.03;;;17.61;55.22
79138;BME280;68544;45.566;10.238;2024-03-02T10:36:36;99086.03;;;17.48;55.62
79138;BME280;68544;45.566;10.238;2024-03-02T10:39:06;99082.09;;;17.00;55.36
79138;BME280;68544;45.566;10.238;2024-03-02T10:41:34;99084.66;;;17.07;55.58
79138;BME280;68544;45.566;10.238;2024-03-02T10:44:02;99089.09;;;17.13;55.68
79138;BME280;68544;45.566;10.238;2024-03-02T10:46:29;99089.25;;;17.45;54.68
79138;BME280;68544;45.566;10.238;2024-03-02T10:48:56;99078.38;;;17.06;54.11
79138;BME280;68544;45.566;10.238;2024-03-02T10:51:28;99087.31;;;17.62;53.46
79138;BME280;68544;45.566;10.238;2024-03-02T10:53:57;99078.66;;;17.70;53.41
79138;BME280;68544;45.566;10.238;2024-03-02T10:56:28;99086.31;;;17.29;54.74
79138;BME280;68544;45.566;10.238;2024-03-02T10:59:16;99078.66;;;17.70;53.54
79138;BME280;68544;45.566;10.238;2024-03-02T11:01:43;99078.31;;;17.01;53.96
79138;BME280;68544;45.566;10.238;2024-03-02T11:04:12;99066.16;;;17.52;52.75
79138;BME280;68544;45.566;10.238;2024-03-02T11:06:46;99066.16;;;17.30;54.22
79138;BME280;68544;45.566;10.238;2024-03-02T11:09:14;99070.19;;;17.93;52.93
79138;BME280;68544;45.566;10.238;2024-03-02T11:11:42;99040.88;;;16.97;53.29
79138;BME280;68544;45.566;10.238;2024-03-02T11:14:13;99056.94;;;17.36;53.89
79138;BME280;68544;45.566;10.238;2024-03-02T11:16:39;99055.38;;;17.89;53.21
79138;BME280;68544;45.566;10.238;2024-03-02T11:19:08;99061.78;;;17.51;52.78
79138;BME280;68544;45.566;10.238;2024-03-02T11:21:35;99051.44;;;17.53;52.61
79138;BME280;68544;45.566;10.238;2024-03-02T11:26:46;99054.16;;;18.01;51.50
79138;BME280;68544;45.566;10.238;2024-03-02T11:32:06;99045.47;;;18.73;49.54
79138;BME280;68544;45.566;10.238;2024-03-02T11:34:41;99044.94;;;19.18;48.41
79138;BME280;68544;45.566;10.238;2024-03-02T11:37:10;99038.50;;;18.55;50.22
79138;BME280;68544;45.566;10.238;2024-03-02T11:39:36;99017.56;;;17.76;49.78
79138;BME280;68544;45.566;10.238;2024-03-02T11:42:05;99045.78;;;17.60;50.74
79138;BME280;68544;45.566;10.238;2024-03-02T11:44:32;99044.91;;;17.32;52.16
79138;BME280;68544;45.566;10.238;2024-03-02T11:47:02;99034.72;;;17.06;51.73
79138;BME280;68544;45.566;10.238;2024-03-02T11:49:38;99050.50;;;17.64;51.09
79138;BME280;68544;45.566;10.238;2024-03-02T11:52:08;99031.75;;;17.73;51.57
79138;BME280;68544;45.566;10.238;2024-03-02T11:54:35;99032.16;;;17.86;49.98
79138;BME280;68544;45.566;10.238;2024-03-02T11:57:02;99037.16;;;17.24;51.74
79138;BME280;68544;45.566;10.238;2024-03-02T11:59:31;99030.59;;;17.25;51.56
79138;BME280;68544;45.566;10.238;2024-03-02T12:01:57;99022.75;;;17.51;50.59
79138;BME280;68544;45.566;10.238;2024-03-02T12:04:23;99022.91;;;17.92;49.85
79138;BME280;68544;45.566;10.238;2024-03-02T12:06:57;99011.28;;;18.39;48.91
79138;BME280;68544;45.566;10.238;2024-03-02T12:09:27;99023.31;;;18.06;49.47
79138;BME280;68544;45.566;10.238;2024-03-02T12:12:03;99027.75;;;17.15;49.69
79138;BME280;68544;45.566;10.238;2024-03-02T12:14:29;99024.47;;;17.13;51.08
79138;BME280;68544;45.566;10.238;2024-03-02T12:16:55;99029.44;;;17.00;51.04
79138;BME280;68544;45.566;10.238;2024-03-02T12:19:21;99026.13;;;16.59;49.78
79138;BME280;68544;45.566;10.238;2024-03-02T12:21:46;99011.63;;;16.54;50.58
79138;BME280;68544;45.566;10.238;2024-03-02T12:24:12;99026.56;;;16.35;50.99
79138;BME280;68544;45.566;10.238;2024-03-02T12:26:37;99024.97;;;16.06;51.92
79138;BME280;68544;45.566;10.238;2024-03-02T12:29:03;99028.09;;;15.81;53.38
79138;BME280;68544;45.566;10.238;2024-03-02T12:31:28;99024.41;;;16.04;53.36
79138;BME280;68544;45.566;10.238;2024-03-02T12:33:54;99020.34;;;15.90;53.67
79138;BME280;68544;45.566;10.238;2024-03-02T12:36:20;99021.84;;;15.69;54.34
79138;BME280;68544;45.566;10.238;2024-03-02T12:38:45;99013.75;;;15.86;54.45
79138;BME280;68544;45.566;10.238;2024-03-02T12:41:14;99017.53;;;16.18;54.27
79138;BME280;68544;45.566;10.238;2024-03-02T12:43:40;99012.63;;;16.15;54.42
79138;BME280;68544;45.566;10.238;2024-03-02T12:46:05;99008.91;;;16.21;53.60
79138;BME280;68544;45.566;10.238;2024-03-02T12:48:31;99021.34;;;16.17;54.07
79138;BME280;68544;45.566;10.238;2024-03-02T12:50:56;99008.94;;;15.76;54.72
79138;BME280;68544;45.566;10.238;2024-03-02T12:53:22;99001.94;;;15.97;53.73